createdAt,value
2022-12-25T00:00:04.724Z,3.90
2022-12-25T00:02:32.046Z,3.90
2022-12-25T00:04:59.253Z,3.90
2022-12-25T00:07:26.398Z,4.00
2022-12-25T00:09:53.508Z,4.00
2022-12-25T00:12:22.360Z,4.00
2022-12-25T00:14:49.479Z,4.00
2022-12-25T00:17:16.666Z,4.00
2022-12-25T00:19:43.732Z,4.00
2022-12-25T00:22:10.891Z,4.00
2022-12-25T00:24:37.948Z,3.90
2022-12-25T00:27:05.025Z,3.90
2022-12-25T00:29:32.958Z,4.00
2022-12-25T00:32:01.117Z,4.00
2022-12-25T00:34:28.250Z,4.00
2022-12-25T00:36:55.422Z,4.00
2022-12-25T00:39:22.512Z,4.00
2022-12-25T00:42:09.611Z,3.90
2022-12-25T00:44:36.776Z,3.90
2022-12-25T00:47:04.281Z,3.90
2022-12-25T00:49:31.557Z,3.90
2022-12-25T00:51:58.666Z,3.90
2022-12-25T00:54:25.832Z,3.80
2022-12-25T00:56:52.806Z,3.80
2022-12-25T00:59:20.025Z,3.80
2022-12-25T01:01:47.481Z,3.90
2022-12-25T01:04:14.825Z,3.90
2022-12-25T01:06:41.935Z,3.90
2022-12-25T01:09:28.995Z,3.80
2022-12-25T01:11:56.237Z,3.80
2022-12-25T01:14:23.311Z,3.80
2022-12-25T01:16:50.502Z,3.80
2022-12-25T01:19:17.581Z,3.80
2022-12-25T01:21:44.683Z,3.80
2022-12-25T01:24:11.894Z,3.80
2022-12-25T01:26:39.060Z,3.90
2022-12-25T01:29:06.520Z,3.90
2022-12-25T01:31:33.577Z,3.90
2022-12-25T01:34:00.798Z,3.80
2022-12-25T01:36:27.919Z,3.90
2022-12-25T01:38:55.352Z,3.90
2022-12-25T01:41:24.406Z,3.90
2022-12-25T01:44:28.449Z,3.90
2022-12-25T01:46:55.617Z,3.90
2022-12-25T01:49:25.973Z,3.90
2022-12-25T01:52:01.162Z,3.90
2022-12-25T01:54:50.434Z,3.90
2022-12-25T01:57:22.535Z,3.90
2022-12-25T01:59:50.061Z,3.90
2022-12-25T02:02:17.412Z,3.90
2022-12-25T02:05:08.030Z,3.80
2022-12-25T02:07:38.423Z,3.90
2022-12-25T02:10:06.265Z,3.80
2022-12-25T02:12:35.230Z,3.80
2022-12-25T02:15:08.550Z,3.80
2022-12-25T02:17:46.294Z,3.70
2022-12-25T02:20:33.409Z,3.60
2022-12-25T02:23:40.343Z,3.60
2022-12-25T02:26:34.831Z,3.50
2022-12-25T02:29:28.632Z,3.40
2022-12-25T02:32:07.941Z,3.40
2022-12-25T02:34:40.956Z,3.40
2022-12-25T02:37:28.413Z,3.40
2022-12-25T02:40:07.969Z,3.40
2022-12-25T02:43:01.101Z,3.40
2022-12-25T02:45:53.661Z,3.40
2022-12-25T02:48:43.809Z,3.40
2022-12-25T02:51:34.673Z,3.40
2022-12-25T02:54:27.578Z,3.50
2022-12-25T02:57:16.977Z,3.60
2022-12-25T03:00:06.535Z,3.60
2022-12-25T03:02:54.536Z,3.70
2022-12-25T03:05:45.120Z,3.70
2022-12-25T03:08:18.782Z,3.60
2022-12-25T03:11:16.661Z,3.70
2022-12-25T03:13:46.719Z,3.60
2022-12-25T03:16:33.713Z,3.60
2022-12-25T03:19:00.942Z,3.60
2022-12-25T03:21:48.394Z,3.60
2022-12-25T03:24:35.397Z,3.60
2022-12-25T03:27:02.495Z,3.60
2022-12-25T03:29:52.799Z,3.60
2022-12-25T03:32:47.337Z,3.50
2022-12-25T03:35:23.726Z,3.50
2022-12-25T03:38:34.012Z,3.50
2022-12-25T03:41:58.139Z,3.40
2022-12-25T03:44:53.961Z,3.40
2022-12-25T03:48:04.112Z,3.40
2022-12-25T03:50:54.536Z,3.40
2022-12-25T03:53:48.915Z,3.40
2022-12-25T03:56:38.559Z,3.40
2022-12-25T03:59:25.577Z,3.30
2022-12-25T04:02:12.918Z,3.30
2022-12-25T04:04:59.970Z,3.40
2022-12-25T04:07:47.799Z,3.40
2022-12-25T04:10:34.899Z,3.40
2022-12-25T04:13:21.998Z,3.40
2022-12-25T04:16:09.065Z,3.40
2022-12-25T04:18:56.983Z,3.40
2022-12-25T04:21:44.952Z,3.30
2022-12-25T04:24:32.191Z,3.20
2022-12-25T04:27:19.185Z,3.10
2022-12-25T04:30:06.191Z,3.00
2022-12-25T04:32:53.235Z,2.90
2022-12-25T04:35:40.187Z,2.90
2022-12-25T04:38:07.381Z,2.80
2022-12-25T04:40:34.477Z,2.70
2022-12-25T04:43:01.560Z,2.60
2022-12-25T04:45:28.821Z,2.60
2022-12-25T04:47:56.083Z,2.50
2022-12-25T04:50:23.155Z,2.40
2022-12-25T04:52:50.146Z,2.50
2022-12-25T04:55:17.307Z,2.50
2022-12-25T04:57:45.176Z,2.50
2022-12-25T05:00:12.682Z,2.50
2022-12-25T05:02:39.936Z,2.30
2022-12-25T05:05:07.453Z,2.30
2022-12-25T05:07:34.523Z,2.30
2022-12-25T05:10:01.635Z,2.30
2022-12-25T05:12:28.801Z,2.30
2022-12-25T05:14:55.994Z,2.20
2022-12-25T05:17:23.300Z,2.10
2022-12-25T05:19:50.375Z,2.10
2022-12-25T05:22:17.544Z,2.10
2022-12-25T05:24:44.635Z,2.00
2022-12-25T05:27:11.809Z,2.10
2022-12-25T05:29:38.992Z,2.10
2022-12-25T05:32:06.415Z,2.00
2022-12-25T05:34:33.469Z,2.00
2022-12-25T05:37:00.593Z,2.00
2022-12-25T05:39:27.800Z,2.00
2022-12-25T05:41:55.065Z,2.00
2022-12-25T05:44:22.191Z,2.10
2022-12-25T05:46:49.659Z,2.00
2022-12-25T05:49:16.965Z,2.00
2022-12-25T05:51:44.129Z,2.00
2022-12-25T05:54:11.118Z,2.00
2022-12-25T05:56:38.651Z,2.00
2022-12-25T05:59:05.943Z,2.00
2022-12-25T06:01:33.147Z,2.00
2022-12-25T06:04:00.293Z,2.00
2022-12-25T06:06:27.569Z,2.00
2022-12-25T06:08:55.426Z,1.90
2022-12-25T06:11:22.588Z,1.80
2022-12-25T06:13:51.765Z,1.80
2022-12-25T06:16:20.160Z,1.70
2022-12-25T06:18:49.750Z,1.70
2022-12-25T06:21:16.968Z,1.70
2022-12-25T06:23:44.404Z,1.60
2022-12-25T06:26:15.165Z,1.60
2022-12-25T06:28:42.548Z,1.60
2022-12-25T06:31:13.611Z,1.60
2022-12-25T06:33:42.119Z,1.60
2022-12-25T06:36:11.680Z,1.60
2022-12-25T06:38:38.983Z,1.60
2022-12-25T06:41:08.956Z,1.60
2022-12-25T06:43:36.633Z,1.50
2022-12-25T06:46:05.909Z,1.50
2022-12-25T06:48:34.394Z,1.50
2022-12-25T06:51:03.499Z,1.50
2022-12-25T06:53:37.158Z,1.50
2022-12-25T06:56:10.429Z,1.50
2022-12-25T06:58:37.584Z,1.60
2022-12-25T07:01:15.627Z,1.60
2022-12-25T07:03:44.470Z,1.60
2022-12-25T07:06:12.304Z,1.60
2022-12-25T07:08:39.804Z,1.70
2022-12-25T07:11:07.823Z,1.80
2022-12-25T07:13:35.204Z,2.10
2022-12-25T07:16:04.209Z,2.20
2022-12-25T07:18:32.330Z,2.30
2022-12-25T07:21:01.974Z,2.60
2022-12-25T07:23:29.073Z,3.70
2022-12-25T07:25:57.561Z,4.50
2022-12-25T07:28:25.443Z,4.80
2022-12-25T07:30:52.607Z,4.70
2022-12-25T07:33:20.449Z,4.50
2022-12-25T07:35:47.950Z,4.20
2022-12-25T07:38:15.203Z,4.00
2022-12-25T07:40:46.392Z,3.90
2022-12-25T07:43:13.887Z,4.70
2022-12-25T07:45:41.197Z,6.60
2022-12-25T07:48:13.368Z,8.60
2022-12-25T07:50:43.587Z,10.20
2022-12-25T07:53:10.785Z,11.20
2022-12-25T07:55:37.870Z,11.90
2022-12-25T07:58:07.019Z,11.90
2022-12-25T08:00:34.550Z,10.50
2022-12-25T08:03:01.866Z,9.20
2022-12-25T08:05:29.127Z,8.20
2022-12-25T08:07:58.102Z,7.40
2022-12-25T08:10:25.792Z,6.60
2022-12-25T08:12:56.358Z,6.10
2022-12-25T08:15:23.554Z,5.70
2022-12-25T08:17:50.728Z,5.50
2022-12-25T08:20:17.796Z,5.20
2022-12-25T08:22:45.099Z,5.00
2022-12-25T08:25:12.216Z,4.90
2022-12-25T08:27:39.362Z,4.80
2022-12-25T08:30:07.332Z,4.80
2022-12-25T08:32:35.388Z,4.90
2022-12-25T08:35:02.547Z,4.90
2022-12-25T08:37:30.367Z,4.90
2022-12-25T08:39:57.394Z,4.90
2022-12-25T08:42:24.651Z,5.00
2022-12-25T08:44:51.718Z,5.10
2022-12-25T08:47:18.859Z,5.10
2022-12-25T08:49:45.921Z,5.20
2022-12-25T08:52:13.147Z,5.40
2022-12-25T08:54:40.363Z,5.50
2022-12-25T08:57:07.588Z,5.60
2022-12-25T08:59:34.668Z,5.60
2022-12-25T09:02:01.911Z,5.80
2022-12-25T09:04:29.188Z,6.00
2022-12-25T09:06:56.464Z,6.30
2022-12-25T09:09:27.920Z,6.60
2022-12-25T09:11:55.222Z,7.10
2022-12-25T09:14:22.389Z,7.60
2022-12-25T09:16:51.299Z,7.90
2022-12-25T09:19:18.513Z,8.20
2022-12-25T09:21:45.821Z,8.50
2022-12-25T09:24:12.906Z,8.60
2022-12-25T09:26:40.028Z,8.40
2022-12-25T09:29:07.138Z,8.50
2022-12-25T09:31:34.363Z,8.50
2022-12-25T09:34:01.519Z,8.50
2022-12-25T09:36:28.619Z,8.50
2022-12-25T09:38:55.886Z,8.50
2022-12-25T09:41:23.954Z,8.50
2022-12-25T09:43:57.280Z,8.40
2022-12-25T09:46:34.832Z,8.40
2022-12-25T09:49:18.614Z,8.40
2022-12-25T09:51:48.692Z,8.50
2022-12-25T09:54:24.932Z,8.50
2022-12-25T09:56:52.558Z,8.60
2022-12-25T09:59:27.307Z,8.80
2022-12-25T10:02:34.873Z,8.70
2022-12-25T10:05:41.948Z,8.90
2022-12-25T10:08:48.835Z,9.00
2022-12-25T10:11:43.203Z,9.20
2022-12-25T10:14:31.249Z,9.50
2022-12-25T10:17:12.842Z,9.80
2022-12-25T10:19:46.261Z,10.00
2022-12-25T10:22:20.172Z,10.50
2022-12-25T10:24:51.377Z,10.90
2022-12-25T10:27:29.070Z,11.40
2022-12-25T10:29:56.407Z,11.50
2022-12-25T10:32:23.422Z,11.20
2022-12-25T10:34:50.911Z,11.10
2022-12-25T10:37:18.355Z,11.10
2022-12-25T10:39:46.950Z,11.20
2022-12-25T10:42:39.841Z,11.00
2022-12-25T10:45:09.483Z,11.10
2022-12-25T10:47:42.003Z,11.10
2022-12-25T10:50:18.449Z,11.10
2022-12-25T10:52:56.072Z,11.20
2022-12-25T10:55:28.403Z,11.30
2022-12-25T10:57:58.089Z,11.40
2022-12-25T11:00:28.396Z,11.60
2022-12-25T11:02:56.375Z,11.80
2022-12-25T11:05:31.645Z,11.90
2022-12-25T11:08:01.096Z,12.00
2022-12-25T11:10:32.899Z,12.10
2022-12-25T11:13:02.345Z,12.10
2022-12-25T11:15:49.446Z,12.20
2022-12-25T11:18:21.311Z,12.30
2022-12-25T11:20:50.922Z,12.40
2022-12-25T11:23:20.398Z,12.50
2022-12-25T11:25:58.973Z,12.60
2022-12-25T11:28:28.416Z,12.70
2022-12-25T11:31:01.017Z,12.70
2022-12-25T11:33:35.671Z,12.80
2022-12-25T11:36:06.378Z,12.70
2022-12-25T11:38:33.635Z,12.60
2022-12-25T11:41:04.767Z,12.70
2022-12-25T11:43:38.919Z,12.80
2022-12-25T11:46:15.300Z,13.00
2022-12-25T11:48:47.132Z,12.90
2022-12-25T11:51:16.128Z,13.00
2022-12-25T11:53:51.125Z,12.90
2022-12-25T11:56:22.638Z,13.00
2022-12-25T11:58:53.901Z,13.10
2022-12-25T12:01:45.821Z,13.10
2022-12-25T12:04:40.264Z,13.00
2022-12-25T12:07:19.437Z,12.90
2022-12-25T12:10:02.933Z,13.00
2022-12-25T12:12:54.622Z,13.10
2022-12-25T12:15:47.324Z,13.00
2022-12-25T12:18:37.630Z,12.90
2022-12-25T12:21:07.159Z,13.00
2022-12-25T12:23:56.334Z,13.10
2022-12-25T12:26:26.440Z,13.10
2022-12-25T12:28:58.070Z,13.10
2022-12-25T12:31:25.884Z,13.10
2022-12-25T12:33:57.766Z,13.10
2022-12-25T12:36:35.515Z,13.20
2022-12-25T12:39:05.412Z,13.20
2022-12-25T12:41:48.265Z,13.20
2022-12-25T12:44:17.363Z,13.20
2022-12-25T12:46:55.526Z,13.20
2022-12-25T12:49:25.621Z,13.10
2022-12-25T12:52:32.546Z,12.70
2022-12-25T12:55:13.213Z,12.80
2022-12-25T12:57:41.322Z,12.70
2022-12-25T13:00:18.066Z,12.60
2022-12-25T13:03:05.377Z,12.60
2022-12-25T13:05:48.235Z,12.60
2022-12-25T13:08:36.521Z,12.60
2022-12-25T13:11:10.981Z,12.60
2022-12-25T13:13:42.007Z,12.60
2022-12-25T13:16:25.088Z,12.70
2022-12-25T13:18:54.212Z,12.60
2022-12-25T13:21:25.844Z,12.60
2022-12-25T13:23:58.429Z,12.50
2022-12-25T13:26:26.001Z,12.40
2022-12-25T13:28:55.995Z,12.50
2022-12-25T13:31:26.603Z,12.40
2022-12-25T13:34:30.965Z,12.20
2022-12-25T13:37:06.310Z,12.00
2022-12-25T13:39:35.329Z,11.90
2022-12-25T13:42:05.998Z,11.90
2022-12-25T13:45:00.577Z,11.90
2022-12-25T13:47:31.754Z,11.90
2022-12-25T13:50:01.982Z,11.90
2022-12-25T13:52:38.146Z,11.80
2022-12-25T13:55:23.879Z,11.80
2022-12-25T13:57:52.184Z,11.80
2022-12-25T14:00:24.185Z,11.70
2022-12-25T14:02:52.310Z,11.60
2022-12-25T14:05:37.927Z,11.50
2022-12-25T14:08:17.101Z,11.40
2022-12-25T14:10:48.475Z,11.40
2022-12-25T14:13:16.303Z,11.30
2022-12-25T14:15:45.091Z,11.30
2022-12-25T14:18:16.747Z,11.30
2022-12-25T14:21:02.504Z,11.20
2022-12-25T14:23:38.195Z,11.20
2022-12-25T14:26:05.652Z,11.10
2022-12-25T14:28:34.557Z,10.90
2022-12-25T14:31:03.020Z,10.70
2022-12-25T14:33:36.804Z,10.60
2022-12-25T14:36:04.743Z,10.40
2022-12-25T14:38:35.151Z,10.30
2022-12-25T14:41:05.478Z,10.20
2022-12-25T14:43:36.539Z,10.10
2022-12-25T14:46:06.679Z,10.00
2022-12-25T14:48:33.883Z,9.90
2022-12-25T14:51:07.109Z,9.80
2022-12-25T14:53:38.631Z,9.80
2022-12-25T14:56:07.760Z,9.60
2022-12-25T14:58:42.075Z,9.50
2022-12-25T15:01:27.094Z,9.40
2022-12-25T15:04:12.017Z,9.30
2022-12-25T15:06:42.249Z,9.10
2022-12-25T15:09:19.134Z,8.90
2022-12-25T15:11:51.723Z,8.80
2022-12-25T15:14:19.122Z,8.60
2022-12-25T15:16:49.649Z,8.60
2022-12-25T15:19:26.633Z,8.50
2022-12-25T15:21:57.796Z,8.40
2022-12-25T15:24:24.843Z,8.30
2022-12-25T15:26:53.514Z,8.20
2022-12-25T15:29:44.579Z,8.10
2022-12-25T15:32:16.215Z,8.00
2022-12-25T15:34:46.209Z,7.80
2022-12-25T15:37:14.532Z,7.70
2022-12-25T15:39:42.166Z,7.70
2022-12-25T15:42:21.968Z,7.60
2022-12-25T15:44:49.294Z,7.60
2022-12-25T15:47:20.261Z,7.50
2022-12-25T15:49:47.734Z,7.40
2022-12-25T15:52:16.775Z,7.30
2022-12-25T15:54:44.830Z,7.20
2022-12-25T15:57:20.064Z,7.20
2022-12-25T15:59:48.149Z,7.10
2022-12-25T16:02:18.450Z,7.00
2022-12-25T16:04:47.588Z,7.00
2022-12-25T16:07:19.246Z,7.00
2022-12-25T16:09:47.793Z,7.00
2022-12-25T16:12:16.978Z,7.00
2022-12-25T16:14:45.378Z,6.90
2022-12-25T16:17:15.948Z,6.90
2022-12-25T16:19:45.082Z,6.80
2022-12-25T16:22:19.253Z,6.70
2022-12-25T16:24:46.966Z,6.50
2022-12-25T16:27:15.079Z,6.40
2022-12-25T16:29:42.703Z,6.30
2022-12-25T16:32:11.705Z,6.20
2022-12-25T16:34:38.854Z,6.10
2022-12-25T16:37:06.253Z,6.00
2022-12-25T16:39:33.633Z,5.90
2022-12-25T16:42:00.845Z,5.90
2022-12-25T16:44:27.980Z,5.80
2022-12-25T16:46:55.169Z,5.70
2022-12-25T16:49:22.383Z,5.60
2022-12-25T16:51:49.602Z,5.50
2022-12-25T16:54:16.702Z,5.50
2022-12-25T16:56:43.767Z,5.50
2022-12-25T16:59:10.990Z,5.40
2022-12-25T17:01:43.225Z,5.40
2022-12-25T17:04:10.607Z,5.30
2022-12-25T17:06:37.765Z,5.30
2022-12-25T17:09:05.173Z,5.30
2022-12-25T17:11:32.822Z,5.20
2022-12-25T17:14:02.794Z,5.20
2022-12-25T17:16:33.037Z,5.10
2022-12-25T17:19:04.294Z,5.10
2022-12-25T17:21:34.405Z,5.00
2022-12-25T17:24:04.010Z,5.00
2022-12-25T17:26:32.515Z,5.00
2022-12-25T17:29:00.200Z,4.90
2022-12-25T17:31:27.979Z,4.90
2022-12-25T17:33:55.125Z,4.80
2022-12-25T17:36:23.061Z,4.70
2022-12-25T17:38:50.407Z,4.50
2022-12-25T17:41:19.710Z,4.50
2022-12-25T17:43:47.708Z,4.50
2022-12-25T17:46:18.693Z,4.50
2022-12-25T17:48:46.573Z,4.40
2022-12-25T17:51:16.356Z,4.40
2022-12-25T17:53:47.068Z,4.40
2022-12-25T17:56:15.224Z,4.40
2022-12-25T17:58:42.530Z,4.40
2022-12-25T18:01:15.841Z,4.40
2022-12-25T18:03:44.583Z,4.40
2022-12-25T18:06:15.965Z,4.20
2022-12-25T18:08:46.383Z,4.20
2022-12-25T18:11:17.892Z,4.10
2022-12-25T18:13:48.614Z,4.00
2022-12-25T18:16:17.535Z,3.90
2022-12-25T18:18:51.500Z,3.80
2022-12-25T18:21:21.722Z,3.70
2022-12-25T18:23:50.002Z,3.60
2022-12-25T18:26:17.734Z,3.60
2022-12-25T18:28:45.073Z,3.60
2022-12-25T18:31:16.924Z,3.60
2022-12-25T18:33:44.781Z,3.60
2022-12-25T18:36:15.854Z,3.60
2022-12-25T18:38:43.045Z,3.50
2022-12-25T18:41:11.133Z,3.50
2022-12-25T18:43:54.283Z,3.50
2022-12-25T18:46:24.789Z,3.50
2022-12-25T18:48:54.357Z,3.50
2022-12-25T18:51:22.017Z,3.40
2022-12-25T18:53:49.813Z,3.30
2022-12-25T18:56:18.483Z,3.20
2022-12-25T18:58:46.793Z,3.10
2022-12-25T19:01:18.460Z,3.10
2022-12-25T19:03:48.213Z,3.10
2022-12-25T19:06:19.877Z,3.00
2022-12-25T19:08:47.093Z,3.10
2022-12-25T19:11:14.542Z,3.00
2022-12-25T19:13:42.322Z,3.00
2022-12-25T19:16:10.108Z,2.90
2022-12-25T19:18:38.268Z,2.80
2022-12-25T19:21:07.503Z,2.80
2022-12-25T19:23:35.213Z,2.70
2022-12-25T19:26:05.637Z,2.70
2022-12-25T19:28:32.898Z,2.70
2022-12-25T19:31:01.159Z,2.70
2022-12-25T19:33:30.739Z,2.70
2022-12-25T19:36:02.561Z,2.70
2022-12-25T19:38:30.067Z,2.70
2022-12-25T19:41:01.011Z,2.70
2022-12-25T19:43:37.730Z,2.70
2022-12-25T19:46:06.190Z,2.70
2022-12-25T19:48:34.397Z,2.60
2022-12-25T19:51:01.975Z,2.60
2022-12-25T19:53:30.688Z,2.60
2022-12-25T19:56:03.012Z,2.60
2022-12-25T19:58:30.376Z,2.50
2022-12-25T20:01:00.908Z,2.50
2022-12-25T20:03:28.430Z,2.40
2022-12-25T20:05:55.987Z,2.40
2022-12-25T20:08:24.688Z,2.40
2022-12-25T20:10:52.125Z,2.30
2022-12-25T20:13:19.758Z,2.30
2022-12-25T20:15:47.522Z,2.30
2022-12-25T20:18:14.635Z,2.30
2022-12-25T20:20:42.963Z,2.30
2022-12-25T20:23:10.432Z,2.30
2022-12-25T20:25:42.167Z,2.20
2022-12-25T20:28:10.313Z,2.10
2022-12-25T20:30:39.728Z,2.10
2022-12-25T20:33:07.034Z,2.10
2022-12-25T20:35:34.824Z,2.10
2022-12-25T20:38:02.079Z,2.10
2022-12-25T20:40:29.122Z,2.10
2022-12-25T20:42:56.161Z,2.00
2022-12-25T20:45:23.231Z,2.00
2022-12-25T20:47:50.743Z,2.00
2022-12-25T20:50:18.053Z,2.00
2022-12-25T20:52:45.363Z,2.00
2022-12-25T20:55:14.251Z,2.00
2022-12-25T20:57:41.634Z,2.00
2022-12-25T21:00:09.486Z,1.90
2022-12-25T21:02:38.135Z,1.90
2022-12-25T21:05:08.022Z,1.90
2022-12-25T21:07:35.419Z,1.80
2022-12-25T21:10:02.492Z,1.80
2022-12-25T21:12:29.553Z,1.80
2022-12-25T21:14:56.674Z,1.80
2022-12-25T21:17:25.110Z,1.80
2022-12-25T21:19:52.364Z,1.80
2022-12-25T21:22:19.609Z,1.80
2022-12-25T21:24:51.950Z,1.80
2022-12-25T21:27:19.056Z,1.70
2022-12-25T21:29:46.529Z,1.70
2022-12-25T21:32:33.473Z,1.70
2022-12-25T21:35:00.970Z,1.70
2022-12-25T21:37:31.140Z,1.70
2022-12-25T21:39:58.634Z,1.70
2022-12-25T21:42:25.923Z,1.60
2022-12-25T21:44:52.951Z,1.60
2022-12-25T21:47:19.947Z,1.60
2022-12-25T21:50:07.052Z,1.60
2022-12-25T21:52:35.740Z,1.60
2022-12-25T21:55:03.053Z,1.50
2022-12-25T21:57:30.179Z,1.60
2022-12-25T21:59:57.482Z,1.50
2022-12-25T22:02:24.821Z,1.50
2022-12-25T22:04:52.172Z,1.50
2022-12-25T22:07:19.371Z,1.50
2022-12-25T22:09:49.641Z,1.50
2022-12-25T22:12:39.814Z,1.40
2022-12-25T22:15:09.806Z,1.40
2022-12-25T22:17:59.355Z,1.40
2022-12-25T22:20:35.772Z,1.40
2022-12-25T22:23:03.098Z,1.40
2022-12-25T22:25:30.323Z,1.30
2022-12-25T22:27:58.171Z,1.30
2022-12-25T22:30:27.695Z,1.20
2022-12-25T22:32:55.812Z,1.30
2022-12-25T22:35:23.966Z,1.30
2022-12-25T22:37:51.367Z,1.30
2022-12-25T22:40:20.460Z,1.30
2022-12-25T22:42:47.821Z,1.30
2022-12-25T22:45:15.209Z,1.30
2022-12-25T22:47:42.578Z,1.30
2022-12-25T22:50:10.993Z,1.40
2022-12-25T22:52:38.892Z,1.40
2022-12-25T22:55:07.927Z,1.40
2022-12-25T22:57:36.227Z,1.40
2022-12-25T23:00:04.287Z,1.50
2022-12-25T23:02:31.761Z,1.40
2022-12-25T23:04:58.948Z,1.40
2022-12-25T23:07:26.085Z,1.40
2022-12-25T23:09:53.183Z,1.40
2022-12-25T23:12:40.180Z,1.40
2022-12-25T23:15:07.970Z,1.40
2022-12-25T23:17:54.931Z,1.30
2022-12-25T23:20:42.218Z,1.30
2022-12-25T23:23:35.239Z,1.30
2022-12-25T23:26:10.575Z,1.20
2022-12-25T23:28:59.373Z,1.10
2022-12-25T23:31:32.763Z,1.10
2022-12-25T23:34:00.624Z,1.00
2022-12-25T23:36:28.175Z,0.90
2022-12-25T23:38:55.305Z,0.90
2022-12-25T23:41:23.117Z,0.90
2022-12-25T23:43:50.532Z,0.80
2022-12-25T23:46:17.998Z,0.90
2022-12-25T23:48:45.161Z,0.80
2022-12-25T23:51:12.722Z,0.70
2022-12-25T23:53:39.933Z,0.70
2022-12-25T23:56:07.440Z,0.60
2022-12-25T23:58:34.548Z,0.60
